Flight Track Log - Related Links

Times and Time Zones

All times are in EDT time to prevent confusion due to time zone crossing. See the SWA561 flight status page for this flight to view local times or setup timezone preferences in your user account.

Time Position Orientation Groundspeed Altitude Reporting Facility
EDT Latitude Longitude Course Direction KTS MPH feet Rate Location/Type
Thu 09:45:45 PM 33.9167 -118.4667 90° East 198 228 1,800  Level Southern California TRACON
Thu 09:46:27 PM 33.8878 -118.5039 227° Southwest 241 277 3,000 2,135 Climbing Los Angeles Center
Thu 09:47:29 PM 33.8278 -118.5542 215° Southwest 278 320 5,500 2,780 Climbing Los Angeles Center
Thu 09:48:30 PM 33.7522 -118.5358 169° South 280 322 8,700 2,585 Climbing Los Angeles Center
Thu 09:49:32 PM 33.6967 -118.4781 139° Southeast 303 349 10,800 2,177 Climbing Los Angeles Center
Thu 09:50:34 PM 33.6956 -118.3439 91° East 348 400 13,200 2,439 Climbing Los Angeles Center
Thu 09:51:00 PM 33.6333 -118.3426 90° East  Level FlightAware Approximate
Thu 09:51:35 PM 33.6928 -118.2197 92° East 382 440 15,800  Level Los Angeles Center
Thu 09:52:37 PM 33.6897 -118.0875 92° East 395 455 18,800 2,806 Climbing Los Angeles Center
Thu 09:53:39 PM 33.6869 -117.9508 91° East 407 468 21,600 2,758 Climbing Los Angeles Center
Thu 09:54:41 PM 33.6825 -117.7803 92° East 422 486 24,500 2,390 Climbing Los Angeles Center
Thu 09:55:42 PM 33.6783 -117.6303 92° East 437 503 26,500 1,854 Climbing Los Angeles Center
Thu 09:56:44 PM 33.6742 -117.4772 92° East 449 517 28,300 1,839 Climbing Los Angeles Center
Thu 09:57:46 PM 33.6694 -117.3189 92° East 463 533 30,300 1,935 Climbing Los Angeles Center
Thu 09:58:48 PM 33.6636 -117.1611 92° East 470 541 32,300 1,887 Climbing Los Angeles Center
Thu 09:59:50 PM 33.6428 -117.0053 99° East 473 544 34,200 1,839 Climbing Los Angeles Center
Thu 10:00:52 PM 33.6128 -116.8219 101° East 469 540 36,100 1,548 Climbing Los Angeles Center
Thu 10:01:54 PM 33.5919 -116.6644 99° East 471 542 37,400 1,366 Climbing Los Angeles Center
Thu 10:02:55 PM 33.5697 -116.5097 100° East 470 541 38,900 780 Climbing Los Angeles Center
Thu 10:03:57 PM 33.5475 -116.3564 100° East 469 540 39,000 48 Climbing Los Angeles Center
Thu 10:04:59 PM 33.5250 -116.2028 100° East 467 537 39,000  Level Los Angeles Center
Thu 10:06:00 PM 33.5025 -116.0508 100° East 463 533 39,000  Level Los Angeles Center
Thu 10:07:02 PM 33.4808 -115.8969 100° East 466 536 39,000  Level Los Angeles Center
Thu 10:08:04 PM 33.4569 -115.7442 101° East 467 537 39,000  Level Los Angeles Center
Thu 10:09:06 PM 33.4336 -115.5906 100° East 468 539 39,000  Level Los Angeles Center
Thu 10:10:07 PM 33.4053 -115.4081 100° East 465 535 39,000  Level Los Angeles Center
Thu 10:11:09 PM 33.3808 -115.2564 101° East 464 534 39,000  Level Los Angeles Center
Thu 10:12:11 PM 33.3569 -115.1042 101° East 465 535 39,000  Level Los Angeles Center
Thu 10:13:13 PM 33.3339 -114.9533 100° East 462 532 39,000  Level Los Angeles Center
Thu 10:14:14 PM 33.3106 -114.8000 100° East 466 536 39,000  Level Los Angeles Center
Thu 10:15:16 PM 33.2861 -114.6492 101° East 464 534 39,000  Level Los Angeles Center
Thu 10:15:34 PM 33.2803 -114.5953 97° East 464 534 39,000  Level Albuquerque Center
Thu 10:16:35 PM 33.2561 -114.4417 101° East 468 539 39,000  Level Albuquerque Center
Thu 10:17:37 PM 33.2314 -114.2900 101° East 468 539 39,000  Level Albuquerque Center
Thu 10:18:38 PM 33.2061 -114.1367 101° East 469 540 39,000  Level Albuquerque Center
Thu 10:19:39 PM 33.1822 -113.9839 101° East 469 540 39,000  Level Albuquerque Center
Thu 10:20:41 PM 33.1558 -113.8306 102° East 470 541 39,000  Level Albuquerque Center
Thu 10:21:42 PM 33.1286 -113.6781 102° East 471 542 39,000  Level Albuquerque Center
Thu 10:22:43 PM 33.0981 -113.4953 101° East 469 540 39,000 -197 Level Albuquerque Center
Thu 10:23:44 PM 33.0722 -113.3422 101° East 469 540 38,600 -683 Descending Albuquerque Center
Thu 10:24:46 PM 33.0467 -113.1853 101° East 476 548 37,600 -976 Descending Albuquerque Center
Thu 10:25:47 PM 33.0197 -113.0311 102° East 476 548 36,600 -934 Descending Albuquerque Center
Thu 10:26:48 PM 32.9922 -112.8750 102° East 478 550 35,700 -927 Descending Albuquerque Center
Thu 10:27:50 PM 32.9642 -112.7175 102° East 482 555 34,700 -1,268 Descending Albuquerque Center
Thu 10:28:51 PM 32.9153 -112.5656 111° Southeast 489 563 33,100 -2,164 Descending Albuquerque Center
Thu 10:29:52 PM 32.8581 -112.4181 115° Southeast 490 564 30,300 -2,557 Descending Albuquerque Center
Thu 10:30:53 PM 32.8019 -112.2747 115° Southeast 482 555 27,900 -2,585 Descending Albuquerque Center
Thu 10:31:55 PM 32.7436 -112.1200 114° Southeast 466 536 25,000 -2,878 Descending Albuquerque Center
Thu 10:32:56 PM 32.6911 -111.9861 115° Southeast 456 525 22,000 -2,607 Descending Albuquerque Center
Thu 10:33:57 PM 32.6403 -111.8533 114° Southeast 446 513 19,700 -2,293 Descending Albuquerque Center
Thu 10:34:59 PM 32.5925 -111.7353 116° Southeast 414 476 17,300 -2,411 Descending Albuquerque Center
Thu 10:35:44 PM 32.5503 -111.6322 116° Southeast 405 466 15,400 -2,164 Descending Albuquerque Center
Thu 10:36:00 PM 32.5442 -111.6161 114° Southeast 405 466 15,100 -3,000 Descending Albuquerque Center
Thu 10:36:44 PM 32.4897 -111.5269 126° Southeast 391 450 12,400 -3,049 Descending Albuquerque Center
Thu 10:37:01 PM 32.4836 -111.5117 115° Southeast 390 449 12,000 -1,770 Descending Albuquerque Center
Thu 10:37:45 PM 32.4314 -111.4239 125° Southeast 381 438 10,600 -1,355 Descending Albuquerque Center
Thu 10:38:03 PM 32.4261 -111.4094 113° Southeast 380 437 10,600 -400 Level Albuquerque Center
Thu 10:38:45 PM 32.3831 -111.3383 126° Southeast 312 359 10,200 -787 Descending Albuquerque Center
Thu 10:39:04 PM 32.3708 -111.3108 118° Southeast 308 354 9,800 -1,377 Descending Albuquerque Center
Thu 10:39:46 PM 32.3400 -111.2592 125° Southeast 291 335 8,800 -1,377 Descending Albuquerque Center
Thu 10:40:05 PM 32.3269 -111.2325 120° Southeast 291 335 8,400 -1,475 Descending Albuquerque Center
Thu 10:40:47 PM 32.2972 -111.1822 125° Southeast 282 325 7,300 -1,574 Descending Albuquerque Center
Thu 10:41:06 PM 32.2842 -111.1567 121° Southeast 282 325 6,800 -1,200 Descending Albuquerque Center
Thu 10:41:47 PM 32.2514 -111.1014 125° Southeast 277 319 6,100 -774 Descending Albuquerque Center
Thu 10:42:08 PM 32.2419 -111.0814 119° Southeast 279 321 6,000 -590 Descending Albuquerque Center
Thu 10:42:48 PM 32.2039 -111.0436 140° Southeast 241 277 5,500 -492 Descending Albuquerque Center
Thu 10:43:09 PM 32.1981 -111.0242 110° East 259 298 5,500 -700 Level Albuquerque Center
Thu 10:43:48 PM 32.1678 -111.0131 163° South 171 197 4,800 -1,180 Descending Albuquerque Center
Thu 10:44:10 PM 32.1586 -111.0050 143° Southeast 194 223 4,300 -1,475 Descending Albuquerque Center
Thu 10:44:49 PM 32.1461 -110.9786 119° Southeast 148 170 3,300 -387 Descending Albuquerque Center
Thu 10:45:12 PM 32.1244 -110.9858 196° South 183 211 3,900 1,565 Climbing Albuquerque Center
Thu 10:47:00 PM 32.1161 -110.9410 128° Southeast  Level Estimated
Thu 10:54:00 PM 32.1161 -110.9410 128° Southeast  Level Estimated

Login

Don't have an account? Register now (free) for customized features, flight alerts, and more!